Terminal Aerodrome Forecast
Issued by NWS

Home | Current Version | Previous Version | Text Only | Print | Product List | Glossary On
Versions: 1 2 3 4 5 6 7 8 9 10 11 12 13
000
FTUS42 TJSJ 020500 RRA
TAFJMZ
TAF
TJMZ 020543Z 0206/0306 VRB06KT P6SM SKC
     FM021500 07015G30KT 6SM -RA BR VCTS BKN030CB
     FM021800 14015G30KT P6SM -SHRA VCTS BKN030CB
      AMD NOT SKED TIL 021600=

USA.gov is the U.S. government's official web portal to all federal, state and local government web resources and services.